Time;durP1;ratioP1;P1;durP2;ratioP2;P2;SDS_P1;SDS_P2;PMS_P1;PMS_P2;Temp;Humidity;BMP_temperature;BMP_pressure;BME280_temperature;BME280_humidity;BME280_pressure;Samples;Min_cycle;Max_cycle;Signal;HPM_P1;HPM_P2
2020/12/05 00:01:20;;;;;;;46.50;28.30;;;3.50;99.90;;;;;;6179010;28;20932;-66
2020/12/05 00:04:23;;;;;;;57.00;29.00;;;3.50;99.90;;;;;;6178987;28;20972;-67
2020/12/05 00:07:25;;;;;;;63.00;29.37;;;3.50;99.90;;;;;;6177337;28;20478;-66
2020/12/05 00:10:28;;;;;;;53.10;26.70;;;3.50;99.90;;;;;;6174412;28;20821;-64
2020/12/05 00:13:30;;;;;;;60.37;30.63;;;3.60;99.90;;;;;;6178952;28;20485;-66
2020/12/05 00:16:36;;;;;;;56.53;30.53;;;3.60;99.90;;;;;;6178471;28;20478;-66
2020/12/05 00:19:38;;;;;;;53.07;27.10;;;3.70;99.90;;;;;;6178534;28;20466;-70
2020/12/05 00:22:40;;;;;;;50.63;26.47;;;3.70;99.90;;;;;;6178581;28;20469;-66
2020/12/05 00:25:42;;;;;;;56.33;27.53;;;3.70;99.90;;;;;;6178464;28;20470;-62
2020/12/05 00:28:44;;;;;;;51.00;28.50;;;3.70;99.90;;;;;;6178441;28;20573;-70
2020/12/05 00:31:51;;;;;;;53.47;27.77;;;3.70;99.90;;;;;;6178203;28;20478;-68
2020/12/05 00:34:53;;;;;;;57.67;29.27;;;3.70;99.90;;;;;;6178374;28;20446;-68
2020/12/05 00:37:56;;;;;;;49.10;25.77;;;3.70;99.90;;;;;;6178607;28;20450;-69
2020/12/05 00:40:58;;;;;;;44.27;28.00;;;3.70;99.90;;;;;;6177888;28;20482;-67
2020/12/05 00:44:00;;;;;;;50.83;26.17;;;3.70;99.90;;;;;;6177897;28;20450;-65
2020/12/05 00:47:03;;;;;;;43.20;25.53;;;3.70;99.90;;;;;;6178161;28;20456;-68
2020/12/05 00:50:06;;;;;;;47.97;27.47;;;3.80;99.90;;;;;;6177472;28;20466;-67
2020/12/05 00:53:08;;;;;;;47.10;24.90;;;3.70;99.90;;;;;;6178116;28;20471;-63
2020/12/05 00:56:11;;;;;;;46.23;25.87;;;3.80;99.90;;;;;;6178015;28;20476;-67
2020/12/05 00:59:13;;;;;;;54.17;24.93;;;3.80;99.90;;;;;;6177498;28;20481;-68
2020/12/05 01:02:16;;;;;;;53.10;27.13;;;3.80;99.90;;;;;;6177701;28;20474;-67
2020/12/05 01:05:18;;;;;;;43.00;23.70;;;3.80;99.90;;;;;;6177354;28;20477;-69
2020/12/05 01:08:20;;;;;;;48.60;25.50;;;3.80;99.90;;;;;;6172986;28;20469;-68
2020/12/05 01:11:23;;;;;;;51.60;25.37;;;3.80;99.90;;;;;;6177290;28;20812;-66
2020/12/05 01:14:25;;;;;;;46.80;24.10;;;3.80;99.90;;;;;;6177272;28;20469;-70
2020/12/05 01:17:32;;;;;;;47.90;25.27;;;3.80;99.90;;;;;;6177650;28;20473;-68
2020/12/05 01:20:34;;;;;;;50.40;27.83;;;3.80;99.90;;;;;;6176754;28;20486;-69
2020/12/05 01:23:37;;;;;;;48.63;27.90;;;3.70;99.90;;;;;;6177455;28;20470;-72
2020/12/05 01:26:39;;;;;;;55.60;29.17;;;3.70;99.90;;;;;;6177242;28;20811;-69
2020/12/05 01:29:41;;;;;;;47.90;24.97;;;3.70;99.90;;;;;;6177360;28;20497;-67
2020/12/05 01:32:44;;;;;;;47.73;26.13;;;3.60;99.90;;;;;;6170746;28;20485;-69
2020/12/05 01:35:46;;;;;;;43.20;25.13;;;3.70;99.90;;;;;;6166963;28;20474;-67
2020/12/05 01:38:49;;;;;;;44.27;26.40;;;3.70;99.90;;;;;;6177041;28;20819;-65
2020/12/05 01:41:52;;;;;;;49.90;27.07;;;3.80;99.90;;;;;;6176591;28;20470;-66
2020/12/05 01:44:54;;;;;;;62.17;25.90;;;3.80;99.90;;;;;;6172596;28;20470;-71
2020/12/05 01:47:58;;;;;;;64.20;28.57;;;3.70;99.90;;;;;;6177058;28;20478;-66
2020/12/05 01:51:00;;;;;;;47.27;26.33;;;3.80;99.90;;;;;;6176437;28;20477;-66
2020/12/05 01:54:04;;;;;;;49.60;26.60;;;3.70;99.90;;;;;;6159752;28;20471;-67
2020/12/05 01:57:06;;;;;;;62.23;29.17;;;3.70;99.90;;;;;;6153108;29;20470;-66
2020/12/05 02:00:09;;;;;;;57.23;27.37;;;3.60;99.90;;;;;;6152890;29;20475;-68
2020/12/05 02:03:14;;;;;;;55.50;28.10;;;3.60;99.90;;;;;;6152760;29;20962;-67
2020/12/05 02:06:27;;;;;;;65.80;30.80;;;3.60;99.90;;;;;;6152721;29;20478;-67
2020/12/05 02:09:33;;;;;;;56.73;30.60;;;3.60;99.90;;;;;;6165375;28;20466;-66
2020/12/05 02:12:41;;;;;;;70.30;31.20;;;3.60;99.90;;;;;;6176289;28;20993;-61
2020/12/05 02:15:47;;;;;;;52.80;27.93;;;3.60;99.90;;;;;;6176330;28;20970;-66
2020/12/05 02:18:52;;;;;;;54.50;29.37;;;3.70;99.90;;;;;;6176396;28;20554;-60
2020/12/05 02:21:59;;;;;;;64.20;32.63;;;3.70;99.90;;;;;;6176591;28;20474;-59
2020/12/05 02:25:03;;;;;;;56.00;28.73;;;3.70;99.90;;;;;;6176717;28;20478;-65
2020/12/05 02:28:06;;;;;;;63.17;30.80;;;3.80;99.90;;;;;;6176523;28;20473;-64
2020/12/05 02:31:11;;;;;;;63.57;30.20;;;3.80;99.90;;;;;;6176670;28;20493;-63
2020/12/05 02:34:13;;;;;;;54.03;28.63;;;3.80;99.90;;;;;;6180795;28;20484;-68
2020/12/05 02:37:22;;;;;;;61.50;30.53;;;3.70;99.90;;;;;;6180783;28;20819;-67
2020/12/05 02:40:25;;;;;;;58.13;29.07;;;3.70;99.90;;;;;;6180741;28;20486;-64
2020/12/05 02:43:28;;;;;;;56.93;29.47;;;3.70;99.90;;;;;;6180730;28;20481;-64
2020/12/05 02:46:31;;;;;;;69.03;30.03;;;3.60;99.90;;;;;;6180603;28;20543;-64
2020/12/05 02:49:34;;;;;;;54.60;27.70;;;3.60;99.90;;;;;;6176111;28;20477;-65
2020/12/05 02:52:36;;;;;;;71.97;33.30;;;3.60;99.90;;;;;;6180365;28;20474;-64
2020/12/05 02:55:39;;;;;;;63.03;30.60;;;3.60;99.90;;;;;;6185741;28;20469;-66
2020/12/05 02:58:41;;;;;;;76.40;32.47;;;3.60;99.90;;;;;;6180263;28;20474;-68
2020/12/05 03:01:44;;;;;;;62.00;30.50;;;3.60;99.90;;;;;;6180220;28;20473;-64
2020/12/05 03:04:46;;;;;;;63.13;29.87;;;3.60;99.90;;;;;;6180397;28;20870;-69
2020/12/05 03:07:48;;;;;;;76.73;35.73;;;3.70;99.90;;;;;;6184823;28;20462;-65
2020/12/05 03:10:51;;;;;;;62.17;34.30;;;3.70;99.90;;;;;;6190186;28;20481;-65
2020/12/05 03:13:53;;;;;;;66.17;33.00;;;3.80;99.90;;;;;;6194067;28;20447;-60
2020/12/05 03:16:55;;;;;;;66.70;33.10;;;3.80;99.90;;;;;;6188214;28;20787;-60
2020/12/05 03:19:58;;;;;;;67.50;30.70;;;3.80;99.90;;;;;;6190868;28;20464;-62
2020/12/05 03:23:01;;;;;;;65.27;31.67;;;3.80;99.90;;;;;;6186184;28;20439;-62
2020/12/05 03:26:04;;;;;;;67.63;30.43;;;3.90;99.90;;;;;;6188272;28;20438;-62
2020/12/05 03:29:06;;;;;;;66.57;30.80;;;3.80;99.90;;;;;;6190063;28;22135;-63
2020/12/05 03:32:12;;;;;;;59.30;31.77;;;3.80;99.90;;;;;;6184947;28;20803;-63
2020/12/05 03:35:14;;;;;;;65.53;30.90;;;3.80;99.90;;;;;;6189071;28;20465;-62
2020/12/05 03:38:16;;;;;;;67.40;31.87;;;3.80;99.90;;;;;;6191795;28;20550;-63
2020/12/05 03:41:20;;;;;;;70.77;34.97;;;3.80;99.90;;;;;;6186436;28;20474;-63
2020/12/05 03:44:22;;;;;;;63.73;31.40;;;3.60;99.90;;;;;;6189399;28;20474;-63
2020/12/05 03:47:24;;;;;;;66.50;32.40;;;3.60;99.90;;;;;;6190641;28;20480;-62
2020/12/05 03:50:27;;;;;;;78.57;33.80;;;3.70;99.90;;;;;;6179908;28;20544;-63
2020/12/05 03:53:29;;;;;;;69.60;33.40;;;3.70;99.90;;;;;;6179970;28;20457;-62
2020/12/05 03:56:32;;;;;;;70.17;33.20;;;3.70;99.90;;;;;;6179936;28;20470;-62
2020/12/05 03:59:35;;;;;;;82.27;35.77;;;3.70;99.90;;;;;;6179074;28;20824;-64
2020/12/05 04:02:37;;;;;;;79.77;35.43;;;3.70;99.90;;;;;;6179526;28;20473;-63
2020/12/05 04:05:39;;;;;;;85.67;39.13;;;3.60;99.90;;;;;;6179382;28;20473;-63
2020/12/05 04:08:41;;;;;;;89.50;35.73;;;3.50;99.90;;;;;;6179388;28;20560;-62
2020/12/05 04:11:44;;;;;;;90.93;38.37;;;3.30;99.90;;;;;;6179136;28;20473;-62
2020/12/05 04:14:46;;;;;;;84.83;36.10;;;3.30;99.90;;;;;;6179223;28;20470;-63
2020/12/05 04:17:49;;;;;;;99.57;37.37;;;3.30;99.90;;;;;;6179186;28;20470;-63
2020/12/05 04:20:51;;;;;;;83.67;33.90;;;3.30;99.90;;;;;;6179102;28;20482;-62
2020/12/05 04:23:53;;;;;;;87.83;36.07;;;3.30;99.90;;;;;;6179352;28;20466;-62
2020/12/05 04:26:57;;;;;;;94.37;37.97;;;3.30;99.90;;;;;;6178862;28;20974;-62
2020/12/05 04:29:59;;;;;;;73.00;32.50;;;3.40;99.90;;;;;;6178655;28;20800;-63
2020/12/05 04:33:01;;;;;;;75.27;36.47;;;3.50;99.90;;;;;;6178478;28;21008;-63
2020/12/05 04:36:04;;;;;;;83.87;35.50;;;3.40;99.90;;;;;;6178648;28;20466;-61
2020/12/05 04:39:06;;;;;;;88.47;35.90;;;3.40;99.90;;;;;;6178595;28;20462;-61
2020/12/05 04:42:09;;;;;;;76.83;35.40;;;3.40;99.90;;;;;;6177957;28;20484;-61
2020/12/05 04:45:11;;;;;;;82.77;37.17;;;3.40;99.90;;;;;;6178485;28;20481;-61
2020/12/05 04:48:15;;;;;;;93.17;34.60;;;3.40;99.90;;;;;;6177933;28;21012;-62
2020/12/05 04:51:24;;;;;;;92.23;36.83;;;3.40;99.90;;;;;;6178058;28;20482;-63
2020/12/05 04:54:28;;;;;;;93.63;37.00;;;3.40;99.90;;;;;;6178239;28;20562;-62
2020/12/05 04:57:39;;;;;;;72.57;36.67;;;3.40;99.90;;;;;;6173997;28;20480;-62
2020/12/05 05:00:42;;;;;;;72.57;34.90;;;3.40;99.90;;;;;;6177950;28;20506;-62
2020/12/05 05:03:44;;;;;;;93.30;34.10;;;3.50;99.90;;;;;;6178026;28;20469;-63
2020/12/05 05:06:47;;;;;;;77.17;37.27;;;3.40;99.90;;;;;;6177960;28;20474;-63
2020/12/05 05:09:52;;;;;;;89.80;39.87;;;3.50;99.90;;;;;;6178280;28;20477;-61
2020/12/05 05:13:04;;;;;;;77.57;33.93;;;3.40;99.90;;;;;;6177798;28;20489;-64
2020/12/05 05:16:13;;;;;;;103.07;38.80;;;3.40;99.90;;;;;;6177887;28;20522;-66
2020/12/05 05:19:20;;;;;;;86.30;34.43;;;3.50;99.90;;;;;;6177618;28;20478;-63
2020/12/05 05:22:23;;;;;;;81.40;35.77;;;3.60;99.90;;;;;;6177674;28;21037;-63
2020/12/05 05:25:25;;;;;;;83.73;34.80;;;3.60;99.90;;;;;;6177809;28;20473;-63
2020/12/05 05:28:31;;;;;;;75.60;34.80;;;3.60;99.90;;;;;;6177998;28;20473;-63
2020/12/05 05:31:47;;;;;;;89.10;36.70;;;3.60;99.90;;;;;;6177205;28;20493;-62
2020/12/05 05:34:49;;;;;;;89.37;38.97;;;3.70;99.90;;;;;;6177530;28;20453;-62
2020/12/05 05:37:52;;;;;;;74.97;32.50;;;3.60;99.90;;;;;;6177272;28;20450;-62
2020/12/05 05:40:54;;;;;;;81.30;32.83;;;3.60;99.90;;;;;;6177129;28;20491;-62
2020/12/05 05:44:00;;;;;;;82.97;35.23;;;3.60;99.90;;;;;;6177457;28;20457;-62
2020/12/05 05:47:02;;;;;;;92.60;38.07;;;3.60;99.90;;;;;;6177058;28;20779;-62
2020/12/05 05:50:19;;;;;;;93.00;38.80;;;3.60;99.90;;;;;;6177173;28;20461;-62
2020/12/05 05:53:22;;;;;;;92.83;37.77;;;3.60;99.90;;;;;;6177295;28;20462;-62
2020/12/05 05:56:24;;;;;;;95.00;38.77;;;3.60;99.90;;;;;;6176982;28;20977;-63
2020/12/05 05:59:29;;;;;;;99.60;41.00;;;3.60;99.90;;;;;;6177063;28;20556;-63
2020/12/05 06:02:39;;;;;;;109.03;42.40;;;3.60;99.90;;;;;;6176996;28;20466;-62
2020/12/05 06:05:45;;;;;;;101.80;37.23;;;3.70;99.90;;;;;;6176711;28;20481;-63
2020/12/05 06:08:48;;;;;;;93.07;37.40;;;3.60;99.90;;;;;;6181771;28;20469;-63
2020/12/05 06:11:54;;;;;;;96.33;40.10;;;3.60;99.90;;;;;;6181804;28;20481;-63
2020/12/05 06:14:57;;;;;;;93.10;37.83;;;3.60;99.90;;;;;;6182253;28;20484;-62
2020/12/05 06:18:00;;;;;;;103.37;38.07;;;3.60;99.90;;;;;;6181552;28;20824;-62
2020/12/05 06:21:02;;;;;;;104.83;39.10;;;3.60;99.90;;;;;;6181748;28;20511;-62
2020/12/05 06:24:06;;;;;;;105.77;40.20;;;3.50;99.90;;;;;;6181829;28;20473;-62
2020/12/05 06:27:10;;;;;;;100.90;40.43;;;3.60;99.90;;;;;;6182029;28;20480;-62
2020/12/05 06:30:14;;;;;;;103.33;39.40;;;3.50;99.90;;;;;;6181253;28;20988;-63
2020/12/05 06:33:38;;;;;;;99.83;42.70;;;3.50;99.90;;;;;;6181555;28;20490;-63
2020/12/05 06:36:42;;;;;;;91.70;39.27;;;3.50;99.90;;;;;;6181630;28;20784;-63
2020/12/05 06:40:00;;;;;;;100.43;38.47;;;3.50;99.90;;;;;;6181210;28;20969;-63
2020/12/05 06:43:11;;;;;;;90.43;40.30;;;3.60;99.90;;;;;;6181228;28;20490;-63
2020/12/05 06:46:52;;;;;;;98.50;39.77;;;3.60;99.90;;;;;;6181151;28;20485;-63
2020/12/05 06:49:55;;;;;;;91.37;37.53;;;3.60;99.90;;;;;;6180878;28;20466;-63
2020/12/05 06:52:57;;;;;;;113.23;42.30;;;3.60;99.90;;;;;;6181349;28;20496;-63
2020/12/05 06:56:01;;;;;;;95.13;38.50;;;3.60;99.90;;;;;;6181113;28;20450;-62
2020/12/05 06:59:03;;;;;;;95.23;38.20;;;3.70;99.90;;;;;;6181288;28;20442;-63
2020/12/05 07:02:26;;;;;;;98.57;39.03;;;3.70;99.90;;;;;;6180610;28;20462;-62
2020/12/05 07:05:40;;;;;;;103.53;39.57;;;3.70;99.90;;;;;;6171239;28;20926;-62
2020/12/05 07:08:51;;;;;;;87.30;40.80;;;3.70;99.90;;;;;;6180666;28;20481;-63
2020/12/05 07:12:17;;;;;;;102.30;39.33;;;3.70;99.90;;;;;;6180174;28;20617;-62
2020/12/05 07:15:20;;;;;;;100.77;38.93;;;3.70;99.90;;;;;;6180382;28;20973;-62
2020/12/05 07:18:27;;;;;;;107.70;40.27;;;3.80;99.90;;;;;;6179755;28;20822;-62
2020/12/05 07:21:31;;;;;;;102.23;38.73;;;3.70;99.90;;;;;;6180039;28;20481;-62
2020/12/05 07:24:33;;;;;;;103.27;39.10;;;3.70;99.90;;;;;;6180528;28;20481;-62
2020/12/05 07:27:35;;;;;;;76.90;37.80;;;3.80;99.90;;;;;;6180190;28;20523;-63
2020/12/05 07:30:37;;;;;;;96.40;39.77;;;3.90;99.90;;;;;;6180089;28;20488;-62
2020/12/05 07:33:41;;;;;;;92.53;36.37;;;3.90;99.90;;;;;;6179988;28;20488;-63
2020/12/05 07:36:43;;;;;;;89.13;34.77;;;3.90;99.90;;;;;;6179878;28;20481;-63
2020/12/05 07:39:45;;;;;;;80.40;37.70;;;3.90;99.90;;;;;;6179919;28;20482;-63
2020/12/05 07:42:47;;;;;;;81.53;37.03;;;4.00;99.90;;;;;;6179809;28;20469;-63
2020/12/05 07:45:51;;;;;;;86.80;37.77;;;4.00;99.90;;;;;;6179939;28;20480;-63
2020/12/05 07:48:54;;;;;;;85.77;38.90;;;4.00;99.90;;;;;;6179477;28;20798;-63
2020/12/05 07:51:57;;;;;;;89.20;40.37;;;4.10;99.90;;;;;;6179228;28;20989;-63
2020/12/05 07:55:01;;;;;;;78.27;37.97;;;4.10;99.90;;;;;;6180077;28;20488;-63
2020/12/05 07:58:03;;;;;;;84.57;39.10;;;4.10;99.90;;;;;;6179358;28;20544;-63
2020/12/05 08:01:05;;;;;;;96.40;37.07;;;4.20;99.90;;;;;;6179211;28;20609;-63
2020/12/05 08:04:40;;;;;;;86.17;37.90;;;4.20;99.90;;;;;;6179307;28;20875;-63
2020/12/05 08:07:43;;;;;;;66.43;35.50;;;4.20;99.90;;;;;;6136963;28;20478;-63
2020/12/05 08:10:46;;;;;;;71.80;32.40;;;4.20;99.90;;;;;;6174347;28;20568;-63
2020/12/05 08:13:49;;;;;;;56.23;29.50;;;4.30;99.90;;;;;;6178798;28;20478;-63
2020/12/05 08:16:55;;;;;;;59.10;31.80;;;4.40;99.90;;;;;;6178900;28;20484;-63
2020/12/05 08:20:01;;;;;;;55.97;29.93;;;4.50;99.90;;;;;;6179082;28;20462;-63
2020/12/05 08:23:03;;;;;;;52.00;29.27;;;4.60;99.90;;;;;;6178840;28;20882;-63
2020/12/05 08:26:07;;;;;;;40.13;25.40;;;4.70;99.90;;;;;;6179225;28;20449;-62
2020/12/05 08:29:10;;;;;;;48.07;26.60;;;4.60;99.90;;;;;;6177721;28;20755;-62
2020/12/05 08:32:17;;;;;;;40.77;24.60;;;4.60;99.90;;;;;;6178616;28;20466;-62
2020/12/05 08:35:20;;;;;;;35.23;21.80;;;4.70;99.90;;;;;;6178899;28;20466;-63
2020/12/05 08:38:25;;;;;;;42.63;23.57;;;4.70;99.90;;;;;;6178732;28;20485;-62
2020/12/05 08:41:28;;;;;;;38.80;25.87;;;4.80;99.90;;;;;;6178443;28;20486;-62
2020/12/05 08:44:31;;;;;;;40.73;24.73;;;4.80;99.90;;;;;;6178487;28;20473;-63
2020/12/05 08:47:44;;;;;;;43.43;24.63;;;4.70;99.90;;;;;;6178668;28;20868;-62
2020/12/05 08:50:47;;;;;;;39.30;23.97;;;4.80;99.90;;;;;;6177879;28;20481;-62
2020/12/05 08:53:49;;;;;;;45.93;26.60;;;4.70;99.90;;;;;;6177894;28;20488;-62
2020/12/05 08:57:06;;;;;;;45.33;24.30;;;4.80;99.90;;;;;;6178240;28;20481;-62
2020/12/05 09:00:08;;;;;;;39.90;24.60;;;4.80;99.90;;;;;;6178332;28;20474;-62
2020/12/05 09:03:20;;;;;;;48.27;25.40;;;4.90;99.90;;;;;;6177917;28;20813;-62
2020/12/05 09:06:23;;;;;;;56.80;29.97;;;5.00;99.90;;;;;;6177749;28;20478;-63
2020/12/05 09:09:29;;;;;;;46.27;25.23;;;5.10;99.90;;;;;;6177763;28;21024;-63
2020/12/05 09:12:35;;;;;;;47.13;26.13;;;5.10;99.90;;;;;;6173206;28;20470;-63
2020/12/05 09:15:37;;;;;;;48.27;27.30;;;5.10;99.90;;;;;;6177589;28;20478;-63
2020/12/05 09:18:41;;;;;;;42.60;25.37;;;5.10;99.90;;;;;;6177606;28;20802;-63
2020/12/05 09:21:45;;;;;;;48.57;25.80;;;5.10;99.90;;;;;;6177511;28;20966;-64
2020/12/05 09:24:48;;;;;;;48.00;27.70;;;5.30;99.90;;;;;;6177527;28;20813;-64
2020/12/05 09:27:50;;;;;;;44.50;27.67;;;5.50;99.90;;;;;;6177435;28;20981;-62
2020/12/05 09:30:52;;;;;;;41.77;25.70;;;5.60;99.90;;;;;;6177287;28;20484;-63
2020/12/05 09:33:55;;;;;;;53.37;29.17;;;5.70;99.90;;;;;;6184487;28;20475;-63
2020/12/05 09:36:58;;;;;;;43.60;25.90;;;5.60;99.90;;;;;;6188299;28;20846;-63
2020/12/05 09:40:00;;;;;;;43.97;26.07;;;5.60;99.90;;;;;;6185787;28;20469;-63
2020/12/05 09:43:03;;;;;;;47.57;27.43;;;5.60;99.90;;;;;;6177983;28;20498;-64
2020/12/05 09:46:05;;;;;;;46.57;26.57;;;5.60;99.90;;;;;;6181456;28;20474;-63
2020/12/05 09:49:07;;;;;;;45.33;28.87;;;5.50;99.90;;;;;;6194576;28;20996;-63
2020/12/05 09:52:11;;;;;;;53.10;28.60;;;5.50;99.90;;;;;;6188082;28;20476;-63
2020/12/05 09:55:13;;;;;;;59.03;29.80;;;5.40;99.90;;;;;;6192778;28;20472;-63
2020/12/05 09:58:15;;;;;;;51.63;30.63;;;5.40;99.90;;;;;;6195192;28;20477;-64
2020/12/05 10:01:18;;;;;;;46.90;26.70;;;5.50;99.90;;;;;;6153185;29;20489;-64
2020/12/05 10:04:20;;;;;;;46.00;27.90;;;5.50;99.90;;;;;;6153275;29;20471;-64
2020/12/05 10:07:23;;;;;;;53.20;29.00;;;5.60;99.90;;;;;;6158117;28;20469;-64
2020/12/05 10:10:25;;;;;;;51.23;26.83;;;5.70;99.90;;;;;;6188316;28;20484;-64
2020/12/05 10:13:27;;;;;;;49.07;30.83;;;5.70;99.90;;;;;;6184651;28;20479;-64
2020/12/05 10:16:30;;;;;;;52.90;29.40;;;5.80;99.90;;;;;;6184889;28;20466;-63
2020/12/05 10:19:32;;;;;;;50.33;28.20;;;5.70;99.90;;;;;;6182090;28;20466;-64
2020/12/05 10:22:35;;;;;;;45.60;28.67;;;5.80;99.90;;;;;;6189417;28;20461;-62
2020/12/05 10:25:37;;;;;;;49.83;29.30;;;5.70;99.90;;;;;;6176868;28;20488;-63
2020/12/05 10:28:40;;;;;;;53.93;30.83;;;5.70;99.90;;;;;;6176749;28;20811;-63
2020/12/05 10:31:45;;;;;;;51.37;31.77;;;5.70;99.90;;;;;;6176169;28;20493;-63
2020/12/05 10:34:47;;;;;;;43.80;27.30;;;5.70;99.90;;;;;;6176305;28;20485;-63
2020/12/05 10:37:50;;;;;;;46.43;29.80;;;5.70;99.90;;;;;;6176622;28;20464;-63
2020/12/05 10:40:54;;;;;;;50.83;27.73;;;5.60;99.90;;;;;;6176162;28;20969;-63
2020/12/05 10:43:56;;;;;;;50.10;31.13;;;5.60;99.90;;;;;;6179128;28;20453;-63
2020/12/05 10:46:58;;;;;;;49.53;32.50;;;5.60;99.90;;;;;;6188662;28;20445;-63
2020/12/05 10:50:00;;;;;;;51.50;29.70;;;5.70;99.90;;;;;;6187386;28;20452;-63
2020/12/05 10:53:03;;;;;;;56.23;31.70;;;5.80;99.90;;;;;;6191208;28;20482;-63
2020/12/05 10:56:06;;;;;;;45.60;28.07;;;5.90;99.90;;;;;;6188389;28;20570;-64
2020/12/05 10:59:09;;;;;;;52.30;30.70;;;5.90;99.90;;;;;;6193298;28;20912;-64
2020/12/05 11:02:15;;;;;;;52.07;29.87;;;5.80;99.90;;;;;;6192543;28;20484;-64
2020/12/05 11:05:17;;;;;;;61.03;31.23;;;5.60;99.90;;;;;;6192209;28;20473;-64
2020/12/05 11:08:21;;;;;;;47.80;29.67;;;5.60;99.90;;;;;;6186489;28;20472;-64
2020/12/05 11:11:24;;;;;;;53.80;30.77;;;5.50;99.90;;;;;;6191327;28;20551;-64
2020/12/05 11:14:26;;;;;;;61.40;31.37;;;5.40;99.90;;;;;;6187556;28;20474;-64
2020/12/05 11:17:28;;;;;;;61.47;32.10;;;5.50;99.90;;;;;;6192426;28;20806;-63
2020/12/05 11:20:30;;;;;;;62.83;32.00;;;5.50;99.90;;;;;;6181520;28;20477;-63
2020/12/05 11:23:33;;;;;;;55.03;29.67;;;5.50;99.90;;;;;;6191170;28;20482;-63
2020/12/05 11:26:35;;;;;;;56.00;32.90;;;5.50;99.90;;;;;;6191681;28;20465;-63
2020/12/05 11:29:38;;;;;;;62.93;32.60;;;5.60;99.90;;;;;;6191891;28;20476;-64
2020/12/05 11:32:40;;;;;;;62.17;31.30;;;5.70;99.90;;;;;;6190691;28;20468;-64
2020/12/05 11:35:42;;;;;;;57.47;31.90;;;5.70;99.90;;;;;;6194724;28;20488;-67
2020/12/05 11:38:46;;;;;;;54.40;29.50;;;5.80;99.90;;;;;;6203931;28;20483;-63
2020/12/05 11:41:48;;;;;;;54.60;29.00;;;5.80;99.90;;;;;;6186974;28;20546;-63
2020/12/05 11:44:50;;;;;;;60.93;33.20;;;5.90;99.90;;;;;;6179584;28;20478;-65
2020/12/05 11:47:52;;;;;;;67.33;33.47;;;5.90;99.90;;;;;;6179453;28;20478;-64
2020/12/05 11:50:55;;;;;;;64.27;32.67;;;5.90;99.90;;;;;;6179248;28;20815;-65
2020/12/05 11:53:58;;;;;;;73.07;36.40;;;5.90;99.90;;;;;;6180048;28;20474;-63
2020/12/05 11:57:00;;;;;;;61.87;33.40;;;5.90;99.90;;;;;;6178887;28;20477;-66
2020/12/05 12:00:03;;;;;;;74.83;37.33;;;5.90;99.90;;;;;;6190032;28;20466;-65
2020/12/05 12:03:05;;;;;;;74.73;36.10;;;5.90;99.90;;;;;;6203186;28;20570;-64
2020/12/05 12:06:14;;;;;;;73.47;35.10;;;5.90;99.90;;;;;;6185929;28;20785;-64
2020/12/05 12:09:17;;;;;;;60.73;33.10;;;5.90;99.90;;;;;;6195483;28;20831;-63
2020/12/05 12:12:19;;;;;;;62.03;32.00;;;5.90;99.90;;;;;;6202965;28;20477;-64
2020/12/05 12:15:22;;;;;;;56.37;34.33;;;5.90;99.90;;;;;;6190910;28;20806;-64
2020/12/05 12:18:27;;;;;;;63.90;32.77;;;5.90;99.90;;;;;;6178323;28;20489;-64
2020/12/05 12:21:30;;;;;;;61.70;33.80;;;5.90;99.90;;;;;;6178473;28;20478;-64
2020/12/05 12:24:33;;;;;;;60.77;31.73;;;5.80;99.90;;;;;;6174354;28;20470;-63
2020/12/05 12:27:35;;;;;;;60.90;32.07;;;5.80;99.90;;;;;;6178744;28;20485;-62
2020/12/05 12:30:37;;;;;;;68.47;33.97;;;5.70;99.90;;;;;;6178105;28;20478;-64
2020/12/05 12:33:43;;;;;;;64.67;35.30;;;5.70;99.90;;;;;;6178212;28;20478;-65
2020/12/05 12:36:46;;;;;;;71.67;35.17;;;5.70;99.90;;;;;;6177950;28;20819;-62
2020/12/05 12:39:49;;;;;;;74.60;37.73;;;5.80;99.90;;;;;;6178076;28;20474;-73
2020/12/05 12:42:53;;;;;;;68.47;35.77;;;5.80;99.90;;;;;;6177790;28;20474;-68
2020/12/05 12:45:55;;;;;;;81.47;38.97;;;5.90;99.90;;;;;;6178170;28;20481;-71
2020/12/05 12:48:57;;;;;;;80.10;35.10;;;5.80;99.90;;;;;;6177989;28;20981;-66
2020/12/05 12:51:59;;;;;;;67.47;37.00;;;5.80;99.90;;;;;;6178061;28;20487;-69
2020/12/05 12:55:02;;;;;;;66.73;33.30;;;5.70;99.90;;;;;;6177991;28;20485;-70
2020/12/05 12:58:11;;;;;;;66.10;35.63;;;5.80;99.90;;;;;;6178020;28;20473;-67
2020/12/05 13:01:15;;;;;;;66.80;35.47;;;5.90;99.90;;;;;;6177736;28;20489;-65
2020/12/05 13:04:17;;;;;;;64.23;34.80;;;6.00;99.90;;;;;;6177577;28;20489;-65
2020/12/05 13:07:19;;;;;;;71.97;36.80;;;6.00;99.90;;;;;;6174564;28;21109;-65
2020/12/05 13:10:23;;;;;;;77.20;34.80;;;6.00;99.90;;;;;;6153789;28;20485;-63
2020/12/05 13:13:25;;;;;;;66.87;35.27;;;6.00;99.90;;;;;;6201874;28;20660;-63
2020/12/05 13:16:28;;;;;;;72.33;34.83;;;6.00;99.90;;;;;;6180253;28;20483;-62
2020/12/05 13:19:30;;;;;;;74.43;36.53;;;6.00;99.90;;;;;;6177279;28;20477;-62
2020/12/05 13:22:33;;;;;;;69.30;35.40;;;6.00;99.90;;;;;;6177202;28;20469;-63
2020/12/05 13:25:36;;;;;;;70.60;33.00;;;6.00;99.90;;;;;;6177548;28;20484;-64
2020/12/05 13:28:39;;;;;;;83.00;37.30;;;6.00;99.90;;;;;;6177491;28;20484;-62
2020/12/05 13:31:41;;;;;;;84.60;39.60;;;6.00;99.90;;;;;;6158399;28;20562;-62
2020/12/05 13:34:44;;;;;;;83.80;37.70;;;5.90;99.90;;;;;;6177183;28;20494;-62
2020/12/05 13:37:46;;;;;;;77.53;37.87;;;5.90;99.90;;;;;;6192441;28;20469;-61
2020/12/05 13:40:52;;;;;;;78.67;37.87;;;5.80;99.90;;;;;;6200982;28;20485;-61
2020/12/05 13:43:54;;;;;;;74.23;37.97;;;5.80;99.90;;;;;;6200964;28;20825;-62
2020/12/05 13:46:57;;;;;;;69.93;36.20;;;5.70;99.90;;;;;;6196161;28;20445;-62
2020/12/05 13:49:59;;;;;;;74.93;39.53;;;5.70;99.90;;;;;;6184574;28;20802;-62
2020/12/05 13:53:01;;;;;;;77.70;38.67;;;5.70;99.90;;;;;;6176591;28;20819;-62
2020/12/05 13:56:05;;;;;;;84.70;40.17;;;5.60;99.90;;;;;;6176641;28;20441;-63
2020/12/05 13:59:07;;;;;;;67.87;35.70;;;5.50;99.90;;;;;;6175068;28;20442;-63
2020/12/05 14:02:13;;;;;;;79.40;38.80;;;5.40;99.90;;;;;;6175092;28;20497;-63
2020/12/05 14:05:16;;;;;;;78.07;39.43;;;5.40;99.90;;;;;;6174485;28;21190;-63
2020/12/05 14:08:18;;;;;;;80.93;36.47;;;5.40;99.90;;;;;;6164899;28;20589;-62
2020/12/05 14:11:23;;;;;;;81.97;36.93;;;5.30;99.90;;;;;;6151913;29;20471;-63
2020/12/05 14:14:25;;;;;;;80.67;36.67;;;5.30;99.90;;;;;;6154210;28;20636;-63
2020/12/05 14:17:27;;;;;;;77.40;37.67;;;5.30;99.90;;;;;;6175300;28;20473;-63
2020/12/05 14:20:30;;;;;;;83.73;38.37;;;5.30;99.90;;;;;;6174645;28;20508;-64
2020/12/05 14:23:32;;;;;;;73.23;36.07;;;5.30;99.90;;;;;;6175370;28;20559;-63
2020/12/05 14:26:37;;;;;;;81.37;38.60;;;5.30;99.90;;;;;;6174614;28;20486;-63
2020/12/05 14:29:39;;;;;;;86.87;39.77;;;5.20;99.90;;;;;;6180072;28;20480;-63
2020/12/05 14:32:42;;;;;;;74.30;39.07;;;5.10;99.90;;;;;;6171908;28;20474;-62
2020/12/05 14:35:45;;;;;;;84.20;38.17;;;5.00;99.90;;;;;;6179153;28;20489;-62
2020/12/05 14:38:48;;;;;;;85.83;36.73;;;4.90;99.90;;;;;;6190137;28;20469;-62
2020/12/05 14:41:51;;;;;;;83.70;38.27;;;4.80;99.90;;;;;;6203211;28;20500;-61
2020/12/05 14:44:53;;;;;;;82.33;37.27;;;4.90;99.90;;;;;;6201489;28;20534;-61
2020/12/05 14:47:56;;;;;;;83.77;38.87;;;4.90;99.90;;;;;;6201137;28;20814;-61
2020/12/05 14:50:58;;;;;;;91.43;39.47;;;4.90;99.90;;;;;;6201442;28;20856;-61
2020/12/05 14:54:00;;;;;;;82.63;39.70;;;4.90;99.90;;;;;;6201976;28;20476;-61
2020/12/05 14:57:03;;;;;;;92.80;43.20;;;4.90;99.90;;;;;;6202717;28;20496;-61
2020/12/05 15:00:06;;;;;;;82.83;37.43;;;5.00;99.90;;;;;;6204337;28;20473;-61
2020/12/05 15:03:08;;;;;;;84.13;40.87;;;5.00;99.90;;;;;;6204856;28;20476;-60
2020/12/05 15:06:14;;;;;;;84.17;41.40;;;5.00;99.90;;;;;;6205232;28;20465;-60
2020/12/05 15:09:18;;;;;;;100.97;41.80;;;5.00;99.90;;;;;;6167902;28;20579;-60
2020/12/05 15:12:21;;;;;;;91.57;40.93;;;4.90;99.90;;;;;;6155373;29;20494;-60
2020/12/05 15:15:25;;;;;;;95.80;41.57;;;4.90;99.90;;;;;;6168316;28;20972;-60
2020/12/05 15:18:27;;;;;;;87.83;38.27;;;5.00;99.90;;;;;;6180328;28;20521;-59
2020/12/05 15:21:30;;;;;;;78.37;38.00;;;5.00;99.90;;;;;;6180098;28;20470;-60
2020/12/05 15:24:32;;;;;;;87.17;37.73;;;5.00;99.90;;;;;;6180552;28;20478;-60
2020/12/05 15:27:37;;;;;;;87.37;39.20;;;5.00;99.90;;;;;;6180031;28;20858;-60
2020/12/05 15:30:39;;;;;;;85.37;40.90;;;5.00;99.90;;;;;;6179748;28;21037;-60
2020/12/05 15:33:42;;;;;;;84.43;39.13;;;5.00;99.90;;;;;;6179710;28;20485;-60
2020/12/05 15:36:46;;;;;;;93.03;41.07;;;4.90;99.90;;;;;;6175806;28;20483;-61
2020/12/05 15:39:48;;;;;;;88.53;39.07;;;5.00;99.90;;;;;;6179227;28;20482;-61
2020/12/05 15:42:51;;;;;;;85.57;38.47;;;4.90;99.90;;;;;;6179452;28;20504;-60